createdAt,value
2018-06-09T00:01:41.506Z,10.10
2018-06-09T00:04:09.596Z,11.20
2018-06-09T00:06:38.010Z,10.17
2018-06-09T00:09:07.010Z,9.80
2018-06-09T00:11:35.588Z,9.90
2018-06-09T00:14:04.062Z,12.10
2018-06-09T00:16:32.242Z,11.00
2018-06-09T00:19:00.780Z,10.03
2018-06-09T00:21:28.944Z,13.30
2018-06-09T00:23:57.191Z,10.43
2018-06-09T00:26:25.326Z,11.67
2018-06-09T00:28:53.437Z,11.40
2018-06-09T00:31:21.554Z,11.20
2018-06-09T00:33:50.038Z,12.27
2018-06-09T00:36:18.261Z,11.97
2018-06-09T00:38:46.691Z,10.63
2018-06-09T00:41:14.934Z,11.23
2018-06-09T00:43:43.064Z,11.03
2018-06-09T00:46:11.510Z,11.00
2018-06-09T00:48:39.622Z,10.63
2018-06-09T00:51:07.728Z,9.57
2018-06-09T00:53:36.000Z,10.10
2018-06-09T00:56:15.543Z,9.57
2018-06-09T00:58:43.993Z,9.27
2018-06-09T01:01:12.196Z,9.90
2018-06-09T01:03:40.302Z,9.50
2018-06-09T01:06:08.715Z,10.40
2018-06-09T01:08:36.916Z,8.73
2018-06-09T01:11:05.442Z,9.00
2018-06-09T01:13:33.559Z,9.90
2018-06-09T01:16:01.641Z,9.27
2018-06-09T01:18:29.772Z,10.57
2018-06-09T01:20:58.210Z,10.00
2018-06-09T01:23:26.713Z,10.37
2018-06-09T01:25:54.926Z,9.90
2018-06-09T01:28:23.367Z,10.47
2018-06-09T01:30:51.497Z,10.70
2018-06-09T01:35:51.466Z,9.17
2018-06-09T01:38:19.973Z,9.20
2018-06-09T01:40:48.126Z,8.63
2018-06-09T01:43:16.312Z,8.57
2018-06-09T01:45:44.793Z,8.80
2018-06-09T01:48:13.256Z,8.33
2018-06-09T01:50:41.747Z,8.80
2018-06-09T01:53:10.205Z,8.63
2018-06-09T01:55:38.365Z,9.43
2018-06-09T01:58:06.903Z,9.23
2018-06-09T02:00:35.079Z,8.80
2018-06-09T02:03:03.231Z,9.47
2018-06-09T02:05:31.788Z,10.60
2018-06-09T02:08:00.291Z,8.70
2018-06-09T02:10:28.806Z,9.23
2018-06-09T02:12:56.981Z,8.63
2018-06-09T02:15:25.561Z,10.23
2018-06-09T02:17:54.133Z,8.93
2018-06-09T02:20:22.454Z,8.23
2018-06-09T02:22:50.969Z,8.40
2018-06-09T02:25:19.141Z,8.00
2018-06-09T02:27:47.321Z,8.57
2018-06-09T02:30:15.814Z,7.73
2018-06-09T02:32:43.981Z,8.67
2018-06-09T02:35:12.187Z,8.13
2018-06-09T02:37:40.712Z,8.43
2018-06-09T02:40:09.258Z,7.80
2018-06-09T02:42:37.434Z,7.67
2018-06-09T02:45:05.924Z,8.97
2018-06-09T02:47:34.122Z,8.43
2018-06-09T02:50:02.640Z,8.17
2018-06-09T02:52:31.157Z,9.20
2018-06-09T02:54:59.325Z,8.80
2018-06-09T02:57:27.490Z,8.50
2018-06-09T02:59:55.974Z,9.13
2018-06-09T03:02:24.440Z,8.57
2018-06-09T03:04:52.623Z,7.80
2018-06-09T03:07:21.087Z,9.13
2018-06-09T03:09:49.609Z,9.00
2018-06-09T03:12:18.095Z,8.80
2018-06-09T03:14:46.582Z,8.73
2018-06-09T03:17:15.073Z,7.67
2018-06-09T03:19:43.333Z,7.53
2018-06-09T03:22:11.839Z,8.70
2018-06-09T03:24:40.039Z,8.13
2018-06-09T03:27:08.754Z,7.97
2018-06-09T03:29:37.313Z,9.57
2018-06-09T03:32:05.495Z,8.63
2018-06-09T03:34:34.010Z,8.33
2018-06-09T03:37:02.262Z,8.60
2018-06-09T03:39:30.588Z,8.80
2018-06-09T03:41:58.754Z,8.47
2018-06-09T03:44:27.471Z,7.90
2018-06-09T03:46:56.053Z,7.83
2018-06-09T03:49:24.391Z,8.30
2018-06-09T03:51:52.541Z,8.50
2018-06-09T03:54:21.085Z,8.40
2018-06-09T03:56:49.277Z,8.20
2018-06-09T03:59:17.766Z,8.30
2018-06-09T04:01:45.961Z,9.37
2018-06-09T04:04:14.652Z,8.20
2018-06-09T04:06:42.831Z,7.90
2018-06-09T04:09:11.359Z,9.03
2018-06-09T04:11:39.847Z,8.00
2018-06-09T04:14:08.451Z,8.80
2018-06-09T04:16:36.873Z,7.70
2018-06-09T04:19:05.556Z,8.33
2018-06-09T04:21:33.745Z,8.20
2018-06-09T04:24:02.265Z,8.07
2018-06-09T04:26:30.749Z,9.83
2018-06-09T04:28:58.925Z,8.67
2018-06-09T04:31:27.438Z,9.00
2018-06-09T04:33:55.635Z,9.90
2018-06-09T04:36:24.081Z,8.43
2018-06-09T04:38:53.234Z,8.00
2018-06-09T04:41:21.408Z,9.37
2018-06-09T04:43:50.033Z,9.20
2018-06-09T04:46:18.220Z,9.20
2018-06-09T04:48:46.790Z,8.97
2018-06-09T04:51:15.310Z,9.20
2018-06-09T04:53:44.290Z,7.63
2018-06-09T04:56:12.868Z,9.40
2018-06-09T04:58:41.527Z,9.07
2018-06-09T05:01:09.818Z,10.20
2018-06-09T05:03:38.018Z,9.87
2018-06-09T05:06:06.202Z,10.30
2018-06-09T05:08:34.738Z,10.83
2018-06-09T05:11:04.132Z,10.17
2018-06-09T05:13:32.796Z,9.67
2018-06-09T05:16:01.338Z,9.50
2018-06-09T05:18:29.973Z,10.73
2018-06-09T05:20:58.594Z,10.67
2018-06-09T05:23:27.081Z,9.57
2018-06-09T05:25:55.333Z,10.30
2018-06-09T05:28:23.524Z,11.33
2018-06-09T05:30:52.181Z,10.07
2018-06-09T05:33:20.703Z,9.43
2018-06-09T05:35:49.243Z,9.67
2018-06-09T05:38:17.451Z,9.57
2018-06-09T05:40:45.674Z,9.73
2018-06-09T05:43:14.328Z,10.37
2018-06-09T05:45:42.897Z,9.70
2018-06-09T05:48:12.659Z,10.20
2018-06-09T05:50:41.206Z,9.37
2018-06-09T05:53:09.426Z,8.60
2018-06-09T05:55:38.041Z,9.67
2018-06-09T05:58:06.264Z,10.17
2018-06-09T06:00:34.473Z,10.33
2018-06-09T06:03:02.699Z,10.00
2018-06-09T06:05:31.275Z,9.87
2018-06-09T06:07:59.505Z,12.97
2018-06-09T06:10:27.706Z,9.27
2018-06-09T06:12:55.909Z,8.20
2018-06-09T06:15:24.223Z,9.73
2018-06-09T06:17:52.552Z,11.50
2018-06-09T06:20:21.040Z,10.33
2018-06-09T06:22:49.566Z,10.00
2018-06-09T06:25:18.223Z,9.00
2018-06-09T06:27:46.412Z,9.13
2018-06-09T06:30:14.768Z,9.03
2018-06-09T06:32:42.998Z,9.03
2018-06-09T06:35:11.245Z,9.13
2018-06-09T06:37:39.657Z,9.87
2018-06-09T06:40:07.949Z,8.87
2018-06-09T06:42:36.181Z,9.50
2018-06-09T06:45:04.858Z,9.73
2018-06-09T06:47:33.080Z,9.20
2018-06-09T06:50:01.645Z,8.67
2018-06-09T06:52:29.989Z,8.93
2018-06-09T06:54:59.221Z,8.50
2018-06-09T06:57:27.876Z,8.57
2018-06-09T06:59:56.544Z,9.23
2018-06-09T07:02:24.805Z,9.70
2018-06-09T07:04:53.061Z,9.23
2018-06-09T07:07:21.856Z,8.93
2018-06-09T07:09:50.200Z,8.80
2018-06-09T07:12:18.799Z,9.00
2018-06-09T07:16:13.792Z,9.13
2018-06-09T07:18:42.368Z,8.20
2018-06-09T07:21:10.888Z,8.60
2018-06-09T07:23:39.072Z,8.87
2018-06-09T07:26:07.585Z,9.20
2018-06-09T07:28:36.128Z,8.40
2018-06-09T07:31:04.671Z,9.00
2018-06-09T07:33:33.206Z,7.90
2018-06-09T07:36:01.740Z,8.27
2018-06-09T07:38:31.556Z,9.07
2018-06-09T07:41:00.405Z,8.33
2018-06-09T07:43:29.190Z,8.23
2018-06-09T07:45:57.488Z,8.13
2018-06-09T07:48:25.704Z,9.67
2018-06-09T07:50:53.916Z,8.70
2018-06-09T07:53:22.536Z,8.00
2018-06-09T07:55:51.212Z,8.10
2018-06-09T07:58:19.993Z,9.53
2018-06-09T08:00:53.566Z,9.33
2018-06-09T08:03:22.624Z,8.07
2018-06-09T08:05:50.830Z,9.10
2018-06-09T08:08:19.330Z,8.50
2018-06-09T08:10:47.920Z,10.30
2018-06-09T08:13:16.089Z,9.90
2018-06-09T08:15:44.666Z,8.23
2018-06-09T08:18:13.369Z,9.67
2018-06-09T08:20:41.916Z,8.67
2018-06-09T08:23:10.339Z,7.77
2018-06-09T08:25:38.985Z,9.07
2018-06-09T08:28:07.535Z,8.60
2018-06-09T08:30:36.180Z,8.50
2018-06-09T08:33:04.704Z,10.07
2018-06-09T08:35:33.284Z,10.03
2018-06-09T08:38:02.017Z,9.10
2018-06-09T08:40:37.028Z,10.33
2018-06-09T08:43:05.591Z,9.17
2018-06-09T08:45:34.131Z,9.50
2018-06-09T08:48:02.476Z,9.00
2018-06-09T08:50:30.710Z,8.87
2018-06-09T08:52:58.906Z,9.53
2018-06-09T08:55:27.363Z,10.33
2018-06-09T08:57:55.963Z,10.00
2018-06-09T09:00:24.199Z,9.33
2018-06-09T09:02:52.419Z,10.20
2018-06-09T09:05:20.981Z,9.93
2018-06-09T09:07:49.170Z,9.77
2018-06-09T09:10:17.707Z,10.10
2018-06-09T09:12:46.297Z,9.50
2018-06-09T09:15:14.852Z,9.93
2018-06-09T09:17:43.986Z,10.07
2018-06-09T09:20:12.205Z,9.43
2018-06-09T09:22:40.694Z,9.60
2018-06-09T09:25:10.228Z,9.63
2018-06-09T09:27:38.774Z,9.33
2018-06-09T09:30:07.595Z,8.23
2018-06-09T09:32:35.945Z,9.67
2018-06-09T09:35:04.572Z,8.53
2018-06-09T09:37:33.362Z,11.00
2018-06-09T09:40:02.116Z,9.63
2018-06-09T09:42:30.601Z,10.20
2018-06-09T09:44:59.371Z,11.83
2018-06-09T09:47:28.148Z,10.97
2018-06-09T09:49:56.334Z,10.37
2018-06-09T09:52:24.665Z,10.03
2018-06-09T09:54:53.147Z,8.50
2018-06-09T09:57:21.648Z,8.53
2018-06-09T09:59:50.169Z,9.70
2018-06-09T10:02:18.686Z,9.67
2018-06-09T10:04:46.904Z,9.43
2018-06-09T10:07:15.108Z,10.70
2018-06-09T10:09:43.773Z,11.40
2018-06-09T10:12:12.355Z,11.53
2018-06-09T10:14:40.571Z,9.50
2018-06-09T10:17:09.119Z,8.60
2018-06-09T10:19:37.310Z,9.50
2018-06-09T10:22:05.800Z,8.13
2018-06-09T10:24:34.877Z,8.87
2018-06-09T10:27:03.381Z,7.97
2018-06-09T10:29:32.254Z,8.50
2018-06-09T10:32:00.481Z,8.77
2018-06-09T10:34:29.044Z,9.37
2018-06-09T10:36:57.559Z,7.87
2018-06-09T10:39:26.014Z,8.77
2018-06-09T10:41:54.528Z,9.97
2018-06-09T10:44:23.063Z,8.37
2018-06-09T10:46:51.233Z,8.90
2018-06-09T10:49:19.723Z,9.23
2018-06-09T10:51:47.928Z,9.17
2018-06-09T10:54:16.415Z,8.90
2018-06-09T10:56:44.920Z,9.83
2018-06-09T10:59:13.420Z,10.90
2018-06-09T11:01:41.998Z,10.20
2018-06-09T11:04:10.529Z,10.03
2018-06-09T11:06:38.713Z,10.40
2018-06-09T11:09:07.807Z,9.80
2018-06-09T11:11:36.368Z,10.63
2018-06-09T11:14:04.960Z,10.40
2018-06-09T11:16:33.572Z,10.10
2018-06-09T11:19:01.819Z,10.57
2018-06-09T11:21:30.009Z,9.73
2018-06-09T11:23:58.585Z,9.50
2018-06-09T11:26:26.756Z,9.30
2018-06-09T11:28:55.431Z,9.87
2018-06-09T11:31:23.952Z,9.27
2018-06-09T11:33:52.511Z,9.50
2018-06-09T11:36:21.029Z,10.80
2018-06-09T11:38:49.235Z,10.43
2018-06-09T11:41:18.038Z,10.57
2018-06-09T11:43:46.251Z,8.90
2018-06-09T11:46:14.802Z,9.77
2018-06-09T11:48:43.318Z,9.93
2018-06-09T11:51:11.846Z,11.47
2018-06-09T11:53:40.399Z,11.47
2018-06-09T11:56:08.926Z,10.50
2018-06-09T11:58:37.163Z,11.60
2018-06-09T12:01:05.794Z,12.17
2018-06-09T12:03:34.335Z,11.70
2018-06-09T12:06:02.587Z,10.37
2018-06-09T12:08:31.420Z,12.20
2018-06-09T12:11:00.041Z,11.20
2018-06-09T12:13:28.526Z,11.00
2018-06-09T12:15:57.076Z,12.80
2018-06-09T12:18:25.631Z,10.27
2018-06-09T12:20:53.824Z,12.53
2018-06-09T12:23:22.365Z,11.90
2018-06-09T12:25:50.622Z,10.60
2018-06-09T12:28:18.783Z,10.80
2018-06-09T12:30:46.975Z,9.10
2018-06-09T12:33:15.146Z,9.83
2018-06-09T12:35:43.706Z,10.37
2018-06-09T12:38:12.249Z,10.77
2018-06-09T12:40:40.837Z,10.90
2018-06-09T12:43:09.461Z,10.20
2018-06-09T12:45:38.025Z,10.77
2018-06-09T12:48:06.541Z,11.80
2018-06-09T12:50:34.725Z,11.23
2018-06-09T12:53:03.256Z,9.63
2018-06-09T12:55:31.755Z,11.23
2018-06-09T12:58:00.395Z,10.30
2018-06-09T13:00:28.887Z,12.70
2018-06-09T13:02:57.460Z,12.30
2018-06-09T13:05:25.981Z,10.10
2018-06-09T13:07:54.529Z,10.20
2018-06-09T13:10:22.762Z,9.60
2018-06-09T13:12:50.957Z,10.80
2018-06-09T13:15:19.513Z,10.43
2018-06-09T13:17:48.034Z,9.83
2018-06-09T13:20:16.517Z,9.70
2018-06-09T13:22:45.023Z,10.93
2018-06-09T13:25:13.558Z,8.83
2018-06-09T13:27:41.714Z,8.60
2018-06-09T13:30:10.421Z,9.10
2018-06-09T13:32:38.580Z,8.70
2018-06-09T13:35:07.107Z,8.53
2018-06-09T13:37:35.619Z,8.40
2018-06-09T13:40:03.794Z,9.10
2018-06-09T13:42:32.041Z,9.07
2018-06-09T13:45:00.627Z,9.30
2018-06-09T13:47:29.221Z,9.13
2018-06-09T13:49:57.920Z,10.00
2018-06-09T13:52:26.445Z,9.47
2018-06-09T13:54:54.689Z,8.80
2018-06-09T13:57:22.895Z,8.13
2018-06-09T13:59:51.461Z,7.60
2018-06-09T14:02:20.014Z,8.20
2018-06-09T14:04:48.497Z,8.20
2018-06-09T14:07:17.037Z,8.60
2018-06-09T14:09:45.620Z,7.93
2018-06-09T14:12:13.816Z,8.50
2018-06-09T14:14:42.358Z,8.40
2018-06-09T14:17:10.824Z,6.73
2018-06-09T14:19:40.131Z,7.63
2018-06-09T14:22:08.658Z,7.90
2018-06-09T14:24:36.915Z,7.90
2018-06-09T14:27:05.481Z,7.50
2018-06-09T14:29:33.678Z,8.13
2018-06-09T14:32:02.170Z,7.63
2018-06-09T14:34:30.677Z,7.97
2018-06-09T14:36:59.201Z,7.70
2018-06-09T14:39:27.718Z,8.20
2018-06-09T14:41:55.906Z,6.37
2018-06-09T14:44:24.116Z,8.33
2018-06-09T14:46:52.600Z,8.83
2018-06-09T14:49:21.130Z,7.30
2018-06-09T14:51:49.712Z,8.37
2018-06-09T14:54:18.211Z,6.90
2018-06-09T14:56:46.410Z,7.53
2018-06-09T14:59:14.933Z,7.30
2018-06-09T15:01:43.114Z,7.37
2018-06-09T15:04:11.669Z,8.90
2018-06-09T15:06:40.196Z,8.33
2018-06-09T15:09:09.400Z,7.50
2018-06-09T15:11:37.628Z,8.43
2018-06-09T15:14:06.190Z,7.40
2018-06-09T15:16:34.364Z,6.73
2018-06-09T15:19:02.827Z,9.10
2018-06-09T15:21:31.040Z,8.90
2018-06-09T15:23:59.586Z,10.50
2018-06-09T15:26:27.792Z,7.43
2018-06-09T15:28:56.344Z,10.87
2018-06-09T15:31:24.576Z,8.37
2018-06-09T15:33:53.088Z,9.33
2018-06-09T15:36:21.587Z,8.30
2018-06-09T15:38:49.785Z,8.77
2018-06-09T15:41:18.325Z,8.30
2018-06-09T15:43:46.503Z,8.20
2018-06-09T15:46:15.032Z,9.10
2018-06-09T15:48:43.580Z,8.13
2018-06-09T15:51:12.081Z,7.90
2018-06-09T15:53:40.569Z,6.90
2018-06-09T15:56:09.104Z,7.83
2018-06-09T15:58:37.622Z,7.50
2018-06-09T16:01:06.116Z,8.33
2018-06-09T16:03:34.616Z,7.40
2018-06-09T16:06:03.257Z,9.17
2018-06-09T16:08:31.813Z,7.40
2018-06-09T16:11:00.343Z,7.30
2018-06-09T16:13:28.902Z,8.10
2018-06-09T16:15:57.397Z,8.00
2018-06-09T16:18:25.965Z,8.03
2018-06-09T16:20:54.517Z,8.30
2018-06-09T16:23:22.884Z,8.60
2018-06-09T16:25:51.478Z,8.23
2018-06-09T16:28:20.162Z,7.87
2018-06-09T16:30:48.907Z,8.40
2018-06-09T16:33:17.404Z,10.90
2018-06-09T16:35:45.901Z,9.83
2018-06-09T16:38:14.095Z,9.47
2018-06-09T16:40:42.475Z,9.80
2018-06-09T16:43:11.204Z,8.80
2018-06-09T16:45:39.836Z,9.00
2018-06-09T16:48:08.303Z,11.00
2018-06-09T16:50:36.797Z,9.13
2018-06-09T16:53:05.031Z,9.73
2018-06-09T16:55:33.658Z,9.10
2018-06-09T16:58:02.331Z,9.80
2018-06-09T17:00:30.563Z,9.23
2018-06-09T17:02:59.413Z,11.17
2018-06-09T17:05:27.962Z,10.47
2018-06-09T17:07:56.507Z,9.80
2018-06-09T17:10:25.137Z,10.30
2018-06-09T17:12:53.675Z,10.70
2018-06-09T17:15:21.849Z,11.20
2018-06-09T17:17:50.434Z,10.00
2018-06-09T17:20:18.983Z,10.60
2018-06-09T17:22:47.490Z,10.63
2018-06-09T17:25:15.705Z,11.67
2018-06-09T17:27:43.908Z,10.30
2018-06-09T17:30:12.449Z,10.80
2018-06-09T17:32:40.977Z,10.40
2018-06-09T17:35:09.536Z,10.33
2018-06-09T17:37:37.711Z,11.80
2018-06-09T17:40:06.405Z,11.33
2018-06-09T17:42:34.970Z,10.87
2018-06-09T17:45:03.483Z,12.20
2018-06-09T17:47:31.973Z,11.10
2018-06-09T17:50:00.524Z,12.90
2018-06-09T17:52:28.757Z,11.90
2018-06-09T17:54:57.309Z,12.77
2018-06-09T17:57:25.893Z,12.43
2018-06-09T17:59:54.369Z,13.03
2018-06-09T18:02:22.605Z,10.97
2018-06-09T18:04:51.130Z,10.73
2018-06-09T18:07:19.380Z,11.60
2018-06-09T18:09:47.904Z,12.93
2018-06-09T18:12:16.173Z,11.00
2018-06-09T18:14:44.764Z,12.67
2018-06-09T18:17:13.022Z,12.57
2018-06-09T18:19:41.584Z,12.10
2018-06-09T18:22:10.208Z,11.40
2018-06-09T18:24:39.137Z,11.93
2018-06-09T18:27:07.652Z,14.27
2018-06-09T18:29:35.903Z,12.70
2018-06-09T18:32:04.149Z,11.00
2018-06-09T18:34:32.703Z,12.47
2018-06-09T18:37:02.061Z,12.50
2018-06-09T18:39:30.367Z,11.63
2018-06-09T18:41:58.940Z,11.20
2018-06-09T18:44:27.602Z,11.83
2018-06-09T18:46:56.198Z,12.93
2018-06-09T18:49:24.758Z,12.50
2018-06-09T18:51:53.000Z,12.90
2018-06-09T18:54:21.994Z,13.80
2018-06-09T18:56:50.241Z,12.70
2018-06-09T18:59:18.895Z,13.60
2018-06-09T19:01:47.090Z,11.63
2018-06-09T19:04:15.654Z,13.07
2018-06-09T19:06:44.019Z,13.33
2018-06-09T19:09:12.662Z,14.57
2018-06-09T19:11:40.901Z,13.27
2018-06-09T19:14:09.581Z,12.50
2018-06-09T19:16:38.221Z,12.13
2018-06-09T19:19:06.935Z,13.23
2018-06-09T19:21:35.582Z,13.43
2018-06-09T19:24:04.173Z,13.13
2018-06-09T19:26:32.412Z,12.57
2018-06-09T19:29:00.950Z,13.03
2018-06-09T19:31:29.159Z,12.40
2018-06-09T19:33:58.689Z,12.93
2018-06-09T19:36:27.298Z,13.23
2018-06-09T19:38:55.876Z,14.80
2018-06-09T19:41:24.078Z,14.83
2018-06-09T19:43:52.619Z,15.10
2018-06-09T19:46:21.336Z,14.67
2018-06-09T19:48:50.168Z,14.57
2018-06-09T19:51:18.778Z,13.23
2018-06-09T19:53:47.157Z,13.60
2018-06-09T19:56:15.422Z,15.93
2018-06-09T19:58:43.780Z,14.70
2018-06-09T20:01:12.462Z,13.87
2018-06-09T20:03:41.637Z,15.10
2018-06-09T20:06:09.942Z,15.10
2018-06-09T20:08:38.285Z,15.23
2018-06-09T20:11:06.858Z,15.23
2018-06-09T20:13:35.212Z,15.03
2018-06-09T20:16:03.813Z,15.87
2018-06-09T20:18:32.778Z,16.73
2018-06-09T20:21:01.440Z,15.43
2018-06-09T20:23:29.726Z,15.63
2018-06-09T20:25:58.812Z,15.60
2018-06-09T20:28:27.544Z,14.83
2018-06-09T20:30:56.334Z,17.10
2018-06-09T20:33:25.070Z,15.37
2018-06-09T20:35:54.014Z,15.67
2018-06-09T20:38:23.351Z,14.63
2018-06-09T20:40:51.971Z,14.27
2018-06-09T20:43:20.266Z,15.23
2018-06-09T20:45:49.289Z,15.07
2018-06-09T20:48:17.922Z,16.17
2018-06-09T20:50:46.571Z,14.77
2018-06-09T20:53:16.294Z,17.50
2018-06-09T20:55:45.586Z,17.57
2018-06-09T20:58:13.860Z,16.50
2018-06-09T21:00:42.081Z,18.00
2018-06-09T21:03:10.720Z,18.27
2018-06-09T21:05:39.318Z,18.50
2018-06-09T21:08:07.960Z,19.90
2018-06-09T21:10:36.233Z,19.33
2018-06-09T21:13:04.543Z,18.70
2018-06-09T21:15:33.717Z,19.23
2018-06-09T21:18:02.396Z,19.07
2018-06-09T21:20:30.952Z,17.70
2018-06-09T21:23:00.531Z,17.07
2018-06-09T21:25:29.120Z,16.70
2018-06-09T21:28:02.644Z,18.23
2018-06-09T21:30:36.353Z,17.60
2018-06-09T21:33:11.191Z,16.77
2018-06-09T21:35:52.369Z,17.50
2018-06-09T21:38:26.107Z,17.70
2018-06-09T21:40:59.839Z,17.77
2018-06-09T21:43:28.421Z,20.40
2018-06-09T21:45:57.389Z,19.67
2018-06-09T21:48:26.205Z,18.50
2018-06-09T21:50:54.789Z,18.03
2018-06-09T21:53:22.996Z,20.80
2018-06-09T21:55:52.689Z,19.90
2018-06-09T21:58:22.334Z,20.47
2018-06-09T22:00:51.511Z,20.77
2018-06-09T22:03:21.876Z,21.70
2018-06-09T22:05:51.615Z,20.47
2018-06-09T22:08:22.657Z,21.80
2018-06-09T22:10:53.742Z,22.83
2018-06-09T22:13:22.306Z,23.00
2018-06-09T22:15:50.497Z,19.27
2018-06-09T22:18:19.001Z,20.73
2018-06-09T22:20:47.181Z,20.00
2018-06-09T22:23:15.342Z,20.60
2018-06-09T22:25:49.077Z,21.60
2018-06-09T22:28:17.549Z,19.13
2018-06-09T22:30:46.074Z,18.00
2018-06-09T22:33:14.333Z,18.10
2018-06-09T22:35:42.827Z,18.50
2018-06-09T22:38:11.351Z,18.80
2018-06-09T22:40:39.507Z,19.30
2018-06-09T22:43:07.693Z,18.53
2018-06-09T22:45:36.195Z,18.73
2018-06-09T22:48:04.720Z,20.50
2018-06-09T22:50:32.912Z,19.57
2018-06-09T22:53:01.084Z,19.90
2018-06-09T22:55:29.260Z,20.50
2018-06-09T22:57:57.421Z,21.97
2018-06-09T23:00:30.676Z,22.10
2018-06-09T23:02:58.867Z,20.67
2018-06-09T23:05:27.362Z,22.60
2018-06-09T23:07:55.552Z,23.10
2018-06-09T23:10:23.740Z,23.87
2018-06-09T23:12:51.952Z,24.03
2018-06-09T23:15:20.204Z,22.57
2018-06-09T23:17:48.684Z,23.37
2018-06-09T23:20:17.190Z,24.23
2018-06-09T23:22:45.697Z,26.73
2018-06-09T23:25:14.215Z,25.80
2018-06-09T23:27:42.813Z,26.20
2018-06-09T23:30:11.026Z,25.53
2018-06-09T23:32:39.210Z,25.60
2018-06-09T23:35:07.402Z,26.03
2018-06-09T23:37:35.948Z,24.53
2018-06-09T23:40:04.140Z,24.10
2018-06-09T23:42:32.434Z,23.83
2018-06-09T23:45:00.577Z,23.10
2018-06-09T23:47:29.090Z,23.97
2018-06-09T23:49:57.610Z,22.27
2018-06-09T23:52:26.115Z,21.77
2018-06-09T23:54:54.618Z,23.30
2018-06-09T23:57:22.789Z,24.40
2018-06-09T23:59:51.299Z,23.80
